Página principal
METAR-TAF:

METAR-TAF

Aeroportos :

Volgogrado, Rússia

Aeroporto Internacional de Volgogrado

latitude: 48-47N, longitude: 044-22E, altura: 145 m

Observação actual do tempo

O boletim foi feito há 20 minutos, às 23:30 UTC
Vento 14 kt de es-nordeste
Temperatura 22°C
Humidade 50%
Pressão 1021 hPa
Visibilidade 10 km ou mais
sem nuvens abaixo de 1500 metros e sem cumulonimbus

METAR: URWW 182330Z 07007MPS CAVOK 22/11 Q1021 R06/010070 NOSIG

Hora: 02:50 (23:50 UTC)

Previsão

O boletim foi feito há 53 minutos, às 22:57 UTC
Previsão válida de 19 às 00 UTC a 19 às 09 UTC
Vento 12 kt de nordeste com rajadas de 21 kt
Visibilidade 10 km ou mais
Nuvens dispersasa uma altura de 5000 ft, Cumulonimbus.
Nuvens fragmentadasa uma altura de 10000 ft
Temporariamente
de 19 às 00 UTC a 19 às 09 UTC
Vento 6 kt de es-nordeste com rajadas de 16 kt

TAF: URWW 182257Z 1900/1909 04006G11MPS 9999 SCT050CB BKN100 TEMPO 1900/1909 07003G08MPS

Observações e previsões do tempo de mais de 4000 aeroportos (mensagens METAR e TAF).

As estações disponíveis são os pontos amarelos e vermelhos sobre o mapa.

Mova o rato sobre o mapa para ver o nome da estação.

Depois clique no ponto para visualizar as observações e previsões meteorológicas.

Para alterar o mapa : clique nos botões verdes com uma cruz preta para aumentar o zoom; no botão verde com uma pitada de zoom; ou nas setas verdes para mapas adjacentes.


METAR-TAF: